Hovedside
METAR-TAF:

METAR-TAF

Lufthavner :

Utti, Finland

Utti lufthavn

breddegrad: 60-54N, lengdegrad: 026-56E, høyde over havet: 100 m

Gjeldene værobservasjon

Denne rapporten ble laget for 15 minutter siden, klokken 10:20 UTC
Vind 11 kt fra Sørvest, skiftende mellom Sør og Vest
Temperatur 18°C
Luftfuktighet 59%
Trykk 995 hPa
Sikt 10 km eller mer
Få skyer i en høyde av 2800 ft
Brutte skyer i en høyde av 18400 ft

METAR: EFUT 251020Z AUTO 22011KT 190V260 9999 FEW028 BKN184 18/10 Q0995

Tid: 13:35 (10:35 UTC)


TAF: fraværende

Værobservasjoner og værvarsel for over 4000 flyplasser (METAR- og TAF-rapporter).

Tilgjengelige stasjoner er representert av de røde og gule prikkene på kartet.

Hold musepekeren over prikken for å se navnet på stasjonen.

Klikk så for å se værobservasjoner og -varsler.

For å forandre kartet kan du klikke på den grønne knappen med svart kryss for å zoome inn, på den grønne knappen med strek for å zoome ut, eller på de grønne pilene for å se tilstøtende kart.


METAR-TAF: